createdAt,value
2023-05-08T00:00:00.325Z,11.42
2023-05-08T00:01:00.277Z,11.41
2023-05-08T00:02:00.307Z,11.39
2023-05-08T00:03:00.410Z,11.39
2023-05-08T00:04:00.432Z,11.41
2023-05-08T00:05:00.329Z,11.41
2023-05-08T00:06:00.246Z,11.45
2023-05-08T00:07:00.265Z,11.45
2023-05-08T00:08:00.227Z,11.46
2023-05-08T00:09:00.188Z,11.44
2023-05-08T00:10:00.235Z,11.44
2023-05-08T00:11:00.167Z,11.45
2023-05-08T00:12:00.188Z,11.45
2023-05-08T00:13:00.214Z,11.41
2023-05-08T00:14:00.166Z,11.39
2023-05-08T00:15:00.176Z,11.41
2023-05-08T00:16:00.146Z,11.44
2023-05-08T00:17:00.191Z,11.44
2023-05-08T00:18:00.223Z,11.38
2023-05-08T00:19:00.152Z,11.26
2023-05-08T00:20:00.178Z,11.21
2023-05-08T00:21:00.132Z,11.21
2023-05-08T00:22:00.133Z,11.20
2023-05-08T00:23:00.073Z,11.21
2023-05-08T00:24:00.049Z,11.26
2023-05-08T00:25:00.023Z,11.19
2023-05-08T00:26:00.068Z,11.11
2023-05-08T00:27:00.036Z,11.12
2023-05-08T00:28:00.010Z,11.13
2023-05-08T00:29:00.016Z,11.19
2023-05-08T00:29:59.985Z,11.20
2023-05-08T00:31:00.321Z,11.23
2023-05-08T00:32:00.048Z,11.23
2023-05-08T00:32:59.966Z,11.23
2023-05-08T00:33:59.973Z,11.21
2023-05-08T00:34:59.916Z,11.19
2023-05-08T00:35:59.921Z,11.17
2023-05-08T00:36:59.892Z,11.08
2023-05-08T00:37:59.902Z,10.99
2023-05-08T00:38:59.895Z,10.94
2023-05-08T00:39:59.902Z,10.91
2023-05-08T00:40:59.892Z,10.90
2023-05-08T00:41:59.864Z,10.88
2023-05-08T00:42:59.824Z,10.88
2023-05-08T00:43:59.847Z,10.87
2023-05-08T00:44:59.841Z,10.83
2023-05-08T00:45:59.894Z,10.83
2023-05-08T00:47:00.106Z,10.86
2023-05-08T00:47:59.843Z,10.93
2023-05-08T00:48:59.762Z,10.90
2023-05-08T00:49:59.790Z,10.87
2023-05-08T00:50:59.747Z,10.88
2023-05-08T00:51:59.754Z,10.88
2023-05-08T00:52:59.760Z,10.84
2023-05-08T00:54:00.811Z,10.81
2023-05-08T00:54:59.717Z,10.75
2023-05-08T00:55:59.746Z,10.73
2023-05-08T00:56:59.705Z,10.76
2023-05-08T00:57:59.719Z,10.78
2023-05-08T00:58:59.664Z,10.78
2023-05-08T00:59:59.671Z,10.80
2023-05-08T01:00:59.823Z,10.81
2023-05-08T01:01:59.804Z,10.81
2023-05-08T01:02:59.741Z,10.83
2023-05-08T01:03:59.645Z,10.78
2023-05-08T01:04:59.593Z,10.73
2023-05-08T01:05:59.638Z,10.72
2023-05-08T01:06:59.573Z,10.72
2023-05-08T01:07:59.606Z,10.72
2023-05-08T01:08:59.570Z,10.73
2023-05-08T01:09:59.570Z,10.78
2023-05-08T01:10:59.560Z,10.78
2023-05-08T01:11:59.563Z,10.76
2023-05-08T01:12:59.556Z,10.72
2023-05-08T01:13:59.579Z,10.68
2023-05-08T01:14:59.498Z,10.68
2023-05-08T01:15:59.524Z,10.66
2023-05-08T01:16:59.477Z,10.68
2023-05-08T01:17:59.517Z,10.68
2023-05-08T01:18:59.807Z,10.66
2023-05-08T01:19:59.480Z,10.65
2023-05-08T01:20:59.425Z,10.58
2023-05-08T01:21:59.458Z,10.58
2023-05-08T01:22:59.416Z,10.62
2023-05-08T01:23:59.461Z,10.65
2023-05-08T01:24:59.398Z,10.69
2023-05-08T01:25:59.411Z,10.73
2023-05-08T01:26:59.369Z,10.76
2023-05-08T01:27:59.404Z,10.78
2023-05-08T01:28:59.380Z,10.73
2023-05-08T01:29:59.376Z,10.72
2023-05-08T01:30:59.333Z,10.69
2023-05-08T01:31:59.389Z,10.72
2023-05-08T01:32:59.361Z,10.70
2023-05-08T01:33:59.356Z,10.73
2023-05-08T01:34:59.344Z,10.72
2023-05-08T01:35:59.311Z,10.72
2023-05-08T01:36:59.313Z,10.69
2023-05-08T01:37:59.303Z,10.63
2023-05-08T01:38:59.270Z,10.55
2023-05-08T01:39:59.276Z,10.52
2023-05-08T01:40:59.239Z,10.49
2023-05-08T01:41:59.268Z,10.51
2023-05-08T01:42:59.225Z,10.47
2023-05-08T01:43:59.217Z,10.43
2023-05-08T01:44:59.186Z,10.44
2023-05-08T01:45:59.210Z,10.43
2023-05-08T01:46:59.376Z,10.46
2023-05-08T01:47:59.210Z,10.46
2023-05-08T01:48:59.165Z,10.49
2023-05-08T01:49:59.158Z,10.49
2023-05-08T01:50:59.150Z,10.47
2023-05-08T01:51:59.182Z,10.52
2023-05-08T01:52:59.105Z,10.57
2023-05-08T01:53:59.120Z,10.54
2023-05-08T01:54:59.091Z,10.54
2023-05-08T01:55:59.109Z,10.55
2023-05-08T01:56:59.071Z,10.58
2023-05-08T01:57:59.125Z,10.58
2023-05-08T01:58:59.051Z,10.58
2023-05-08T01:59:59.068Z,10.60
2023-05-08T02:00:59.061Z,10.54
2023-05-08T02:01:59.094Z,10.51
2023-05-08T02:02:59.185Z,10.52
2023-05-08T02:03:59.124Z,10.52
2023-05-08T02:04:58.991Z,10.52
2023-05-08T02:05:58.999Z,10.51
2023-05-08T02:06:58.966Z,10.44
2023-05-08T02:07:58.976Z,10.47
2023-05-08T02:08:59.016Z,10.47
2023-05-08T02:09:58.987Z,10.51
2023-05-08T02:10:58.933Z,10.49
2023-05-08T02:11:58.964Z,10.51
2023-05-08T02:12:58.961Z,10.51
2023-05-08T02:13:58.917Z,10.49
2023-05-08T02:14:58.874Z,10.52
2023-05-08T02:15:58.890Z,10.54
2023-05-08T02:16:58.957Z,10.51
2023-05-08T02:17:58.916Z,10.44
2023-05-08T02:18:58.831Z,10.47
2023-05-08T02:19:58.859Z,10.42
2023-05-08T02:20:58.814Z,10.42
2023-05-08T02:21:58.862Z,10.35
2023-05-08T02:22:58.784Z,10.29
2023-05-08T02:23:58.834Z,10.20
2023-05-08T02:24:58.815Z,10.18
2023-05-08T02:25:58.801Z,10.16
2023-05-08T02:26:58.753Z,10.11
2023-05-08T02:27:58.778Z,10.07
2023-05-08T02:28:58.727Z,10.09
2023-05-08T02:29:58.779Z,10.11
2023-05-08T02:30:58.724Z,10.06
2023-05-08T02:31:58.773Z,9.96
2023-05-08T02:33:00.620Z,9.91
2023-05-08T02:33:58.704Z,9.93
2023-05-08T02:35:03.267Z,9.96
2023-05-08T02:35:58.678Z,10.02
2023-05-08T02:36:58.655Z,10.02
2023-05-08T02:37:58.676Z,10.02
2023-05-08T02:38:58.625Z,10.07
2023-05-08T02:39:58.686Z,10.07
2023-05-08T02:40:58.602Z,10.06
2023-05-08T02:41:58.623Z,9.99
2023-05-08T02:42:58.593Z,9.92
2023-05-08T02:43:58.601Z,9.93
2023-05-08T02:44:58.571Z,9.96
2023-05-08T02:45:58.637Z,9.89
2023-05-08T02:46:58.551Z,9.88
2023-05-08T02:47:58.644Z,9.85
2023-05-08T02:48:58.512Z,9.81
2023-05-08T02:49:58.535Z,9.75
2023-05-08T02:50:58.507Z,9.74
2023-05-08T02:51:58.543Z,9.73
2023-05-08T02:52:58.475Z,9.75
2023-05-08T02:53:58.492Z,9.77
2023-05-08T02:54:58.463Z,9.73
2023-05-08T02:55:58.491Z,9.70
2023-05-08T02:56:58.453Z,9.73
2023-05-08T02:57:58.455Z,9.73
2023-05-08T02:58:58.407Z,9.75
2023-05-08T02:59:58.422Z,9.70
2023-05-08T03:00:58.405Z,9.65
2023-05-08T03:01:58.443Z,9.58
2023-05-08T03:02:58.466Z,9.50
2023-05-08T03:03:58.539Z,9.45
2023-05-08T03:04:58.348Z,9.41
2023-05-08T03:05:58.364Z,9.41
2023-05-08T03:06:58.348Z,9.41
2023-05-08T03:07:58.317Z,9.38
2023-05-08T03:08:58.708Z,9.35
2023-05-08T03:09:58.315Z,9.32
2023-05-08T03:10:58.315Z,9.31
2023-05-08T03:11:58.280Z,9.30
2023-05-08T03:12:58.249Z,9.31
2023-05-08T03:13:58.775Z,9.34
2023-05-08T03:14:58.275Z,9.37
2023-05-08T03:15:58.265Z,9.42
2023-05-08T03:16:58.214Z,9.45
2023-05-08T03:17:58.238Z,9.48
2023-05-08T03:18:58.691Z,9.49
2023-05-08T03:19:58.187Z,9.44
2023-05-08T03:20:58.207Z,9.44
2023-05-08T03:21:58.187Z,9.48
2023-05-08T03:22:58.147Z,9.42
2023-05-08T03:23:58.695Z,9.40
2023-05-08T03:24:58.114Z,9.35
2023-05-08T03:25:58.094Z,9.32
2023-05-08T03:26:58.107Z,9.34
2023-05-08T03:27:58.098Z,9.34
2023-05-08T03:28:58.076Z,9.35
2023-05-08T03:29:58.059Z,9.38
2023-05-08T03:30:58.078Z,9.41
2023-05-08T03:31:58.038Z,9.44
2023-05-08T03:32:58.050Z,9.42
2023-05-08T03:33:58.003Z,9.42
2023-05-08T03:34:58.015Z,9.40
2023-05-08T03:35:57.989Z,9.48
2023-05-08T03:36:58.023Z,9.45
2023-05-08T03:37:57.956Z,9.40
2023-05-08T03:38:57.967Z,9.26
2023-05-08T03:39:57.943Z,9.26
2023-05-08T03:40:57.968Z,9.27
2023-05-08T03:41:57.954Z,9.30
2023-05-08T03:42:57.941Z,9.27
2023-05-08T03:43:57.897Z,9.27
2023-05-08T03:44:57.913Z,9.26
2023-05-08T03:45:57.893Z,9.26
2023-05-08T03:46:57.950Z,9.22
2023-05-08T03:47:57.895Z,9.19
2023-05-08T03:48:57.895Z,9.16
2023-05-08T03:49:57.834Z,9.17
2023-05-08T03:50:57.841Z,9.13
2023-05-08T03:51:57.810Z,9.12
2023-05-08T03:52:57.868Z,9.06
2023-05-08T03:53:57.834Z,9.04
2023-05-08T03:54:57.797Z,9.06
2023-05-08T03:55:57.777Z,9.06
2023-05-08T03:56:57.790Z,9.06
2023-05-08T03:57:57.755Z,9.06
2023-05-08T03:58:57.784Z,9.08
2023-05-08T03:59:57.785Z,9.08
2023-05-08T04:00:57.745Z,9.01
2023-05-08T04:01:57.755Z,9.03
2023-05-08T04:02:57.930Z,9.08
2023-05-08T04:03:57.704Z,9.13
2023-05-08T04:04:57.752Z,9.15
2023-05-08T04:05:57.674Z,9.16
2023-05-08T04:06:57.712Z,9.15
2023-05-08T04:07:57.666Z,9.15
2023-05-08T04:08:57.660Z,9.10
2023-05-08T04:09:57.629Z,9.08
2023-05-08T04:10:57.685Z,9.06
2023-05-08T04:11:57.654Z,9.08
2023-05-08T04:12:57.651Z,9.04
2023-05-08T04:13:57.594Z,8.98
2023-05-08T04:14:57.593Z,9.04
2023-05-08T04:15:57.600Z,9.04
2023-05-08T04:16:57.652Z,9.00
2023-05-08T04:17:57.610Z,8.97
2023-05-08T04:18:57.550Z,8.96
2023-05-08T04:19:57.538Z,8.93
2023-05-08T04:20:57.537Z,8.97
2023-05-08T04:21:57.501Z,9.01
2023-05-08T04:22:57.583Z,9.03
2023-05-08T04:23:57.478Z,9.04
2023-05-08T04:24:57.515Z,9.04
2023-05-08T04:25:57.464Z,9.06
2023-05-08T04:26:57.483Z,9.08
2023-05-08T04:27:57.465Z,9.06
2023-05-08T04:28:57.484Z,9.03
2023-05-08T04:29:57.457Z,9.00
2023-05-08T04:30:57.460Z,9.00
2023-05-08T04:31:57.444Z,9.04
2023-05-08T04:32:57.441Z,9.08
2023-05-08T04:33:57.385Z,9.12
2023-05-08T04:34:57.434Z,9.15
2023-05-08T04:35:57.402Z,9.17
2023-05-08T04:36:57.379Z,9.16
2023-05-08T04:37:57.355Z,9.12
2023-05-08T04:38:59.007Z,9.15
2023-05-08T04:39:57.316Z,9.13
2023-05-08T04:40:57.375Z,9.16
2023-05-08T04:41:57.303Z,9.22
2023-05-08T04:42:57.328Z,9.24
2023-05-08T04:43:57.285Z,9.30
2023-05-08T04:44:57.295Z,9.35
2023-05-08T04:45:57.323Z,9.41
2023-05-08T04:46:57.277Z,9.40
2023-05-08T04:47:57.305Z,9.42
2023-05-08T04:48:57.253Z,9.40
2023-05-08T04:49:57.750Z,9.35
2023-05-08T04:50:57.236Z,9.30
2023-05-08T04:51:57.211Z,9.30
2023-05-08T04:52:57.211Z,9.27
2023-05-08T04:53:57.188Z,9.16
2023-05-08T04:54:57.216Z,9.17
2023-05-08T04:55:57.154Z,9.19
2023-05-08T04:56:57.178Z,9.23
2023-05-08T04:57:57.156Z,9.24
2023-05-08T04:58:57.143Z,9.24
2023-05-08T04:59:57.114Z,9.32
2023-05-08T05:00:57.136Z,9.42
2023-05-08T05:01:57.189Z,9.48
2023-05-08T05:02:57.217Z,9.55
2023-05-08T05:03:57.157Z,9.58
2023-05-08T05:04:57.094Z,9.67
2023-05-08T05:05:57.059Z,9.71
2023-05-08T05:06:57.065Z,9.74
2023-05-08T05:07:57.051Z,9.70
2023-05-08T05:08:57.050Z,9.63
2023-05-08T05:09:57.041Z,9.65
2023-05-08T05:10:57.072Z,9.67
2023-05-08T05:11:58.133Z,9.77
2023-05-08T05:12:57.026Z,9.89
2023-05-08T05:13:56.972Z,9.98
2023-05-08T05:14:56.993Z,10.02
2023-05-08T05:15:57.017Z,10.07
2023-05-08T05:16:56.977Z,10.14
2023-05-08T05:17:57.085Z,10.20
2023-05-08T05:18:56.950Z,10.26
2023-05-08T05:19:56.907Z,10.35
2023-05-08T05:20:56.942Z,10.54
2023-05-08T05:21:56.880Z,10.58
2023-05-08T05:22:56.893Z,10.55
2023-05-08T05:23:56.893Z,10.54
2023-05-08T05:24:56.884Z,10.60
2023-05-08T05:25:56.855Z,10.63
2023-05-08T05:26:56.920Z,10.66
2023-05-08T05:27:56.852Z,10.73
2023-05-08T05:28:56.842Z,10.81
2023-05-08T05:29:56.818Z,10.86
2023-05-08T05:30:56.816Z,10.93
2023-05-08T05:31:56.897Z,10.98
2023-05-08T05:32:57.010Z,11.03
2023-05-08T05:33:56.766Z,11.13
2023-05-08T05:34:56.832Z,11.23
2023-05-08T05:35:56.744Z,11.13
2023-05-08T05:36:56.749Z,11.19
2023-05-08T05:37:56.791Z,11.20
2023-05-08T05:38:56.817Z,11.20
2023-05-08T05:39:56.746Z,11.19
2023-05-08T05:40:56.843Z,11.01
2023-05-08T05:41:56.805Z,10.86
2023-05-08T05:42:56.746Z,10.95
2023-05-08T05:43:56.708Z,11.01
2023-05-08T05:44:56.679Z,10.94
2023-05-08T05:45:56.642Z,10.86
2023-05-08T05:46:56.813Z,10.91
2023-05-08T05:47:56.664Z,11.02
2023-05-08T05:48:56.618Z,11.21
2023-05-08T05:49:56.595Z,11.27
2023-05-08T05:50:56.633Z,11.31
2023-05-08T05:51:56.569Z,11.27
2023-05-08T05:52:56.594Z,11.30
2023-05-08T05:53:56.579Z,11.35
2023-05-08T05:54:56.559Z,11.41
2023-05-08T05:55:56.536Z,11.49
2023-05-08T05:57:00.049Z,11.60
2023-05-08T05:57:56.513Z,11.69
2023-05-08T05:58:56.526Z,11.81
2023-05-08T05:59:56.488Z,11.84
2023-05-08T06:00:56.500Z,11.82
2023-05-08T06:01:56.546Z,11.90
2023-05-08T06:02:56.751Z,11.97
2023-05-08T06:03:56.509Z,11.87
2023-05-08T06:04:56.466Z,11.88
2023-05-08T06:05:56.677Z,11.96
2023-05-08T06:06:56.484Z,11.93
2023-05-08T06:07:56.406Z,12.00
2023-05-08T06:08:56.408Z,12.04
2023-05-08T06:09:56.390Z,11.85
2023-05-08T06:10:56.421Z,11.77
2023-05-08T06:11:56.360Z,11.74
2023-05-08T06:12:56.440Z,11.66
2023-05-08T06:13:56.340Z,11.66
2023-05-08T06:14:56.359Z,11.62
2023-05-08T06:15:56.345Z,11.57
2023-05-08T06:16:56.369Z,11.56
2023-05-08T06:17:56.362Z,11.59
2023-05-08T06:18:56.330Z,11.59
2023-05-08T06:19:56.276Z,11.54
2023-05-08T06:20:56.295Z,11.45
2023-05-08T06:21:56.251Z,11.38
2023-05-08T06:22:56.299Z,11.41
2023-05-08T06:23:56.231Z,11.44
2023-05-08T06:24:56.268Z,11.46
2023-05-08T06:25:56.246Z,11.44
2023-05-08T06:26:56.242Z,11.44
2023-05-08T06:27:56.190Z,11.51
2023-05-08T06:28:56.212Z,11.51
2023-05-08T06:29:56.197Z,11.42
2023-05-08T06:30:56.249Z,11.28
2023-05-08T06:31:56.152Z,11.28
2023-05-08T06:32:56.245Z,11.30
2023-05-08T06:33:56.131Z,11.42
2023-05-08T06:34:56.146Z,11.44
2023-05-08T06:37:05.531Z,11.56
2023-05-08T06:38:13.905Z,11.60
2023-05-08T06:39:06.496Z,11.70
2023-05-08T06:42:33.289Z,11.96
2023-05-08T06:43:48.161Z,12.21
2023-05-08T06:44:49.279Z,12.22
2023-05-08T06:45:49.101Z,12.15
2023-05-08T06:46:49.184Z,12.03
2023-05-08T06:47:49.119Z,12.01
2023-05-08T06:48:49.134Z,12.12
2023-05-08T06:49:49.056Z,12.22
2023-05-08T06:50:49.087Z,12.31
2023-05-08T06:51:49.044Z,12.46
2023-05-08T06:52:49.077Z,12.51
2023-05-08T06:53:49.115Z,12.61
2023-05-08T06:54:49.037Z,12.63
2023-05-08T06:55:49.000Z,12.71
2023-05-08T06:56:49.001Z,12.66
2023-05-08T06:57:48.989Z,12.51
2023-05-08T06:58:57.066Z,12.37
2023-05-08T06:59:48.954Z,12.30
2023-05-08T07:00:49.000Z,12.38
2023-05-08T07:01:49.003Z,12.56
2023-05-08T07:02:49.016Z,12.73
2023-05-08T07:03:48.918Z,12.92
2023-05-08T07:04:49.126Z,12.99
2023-05-08T07:05:48.891Z,12.85
2023-05-08T07:06:48.945Z,12.70
2023-05-08T07:07:48.868Z,12.70
2023-05-08T07:08:48.878Z,12.87
2023-05-08T07:09:48.854Z,12.92
2023-05-08T07:10:48.880Z,12.99
2023-05-08T07:11:48.865Z,13.01
2023-05-08T07:12:48.862Z,13.04
2023-05-08T07:13:48.823Z,13.09
2023-05-08T07:14:48.830Z,13.21
2023-05-08T07:15:48.816Z,13.25
2023-05-08T07:16:48.837Z,13.06
2023-05-08T07:17:48.839Z,13.04
2023-05-08T07:18:48.774Z,13.14
2023-05-08T07:19:48.734Z,13.19
2023-05-08T07:20:48.757Z,13.16
2023-05-08T07:21:48.786Z,13.19
2023-05-08T07:22:48.742Z,13.29
2023-05-08T07:23:49.192Z,13.22
2023-05-08T07:24:48.721Z,13.22
2023-05-08T07:25:48.706Z,13.22
2023-05-08T07:26:48.702Z,13.17
2023-05-08T07:27:48.696Z,13.29
2023-05-08T07:28:48.705Z,13.47
2023-05-08T07:29:48.642Z,13.41
2023-05-08T07:30:48.668Z,13.50
2023-05-08T07:31:48.684Z,13.68
2023-05-08T07:32:48.729Z,13.80
2023-05-08T07:33:48.601Z,13.83
2023-05-08T07:34:48.627Z,13.91
2023-05-08T07:35:48.567Z,13.93
2023-05-08T07:36:48.611Z,13.90
2023-05-08T07:37:48.574Z,13.94
2023-05-08T07:38:48.578Z,13.91
2023-05-08T07:39:48.532Z,13.81
2023-05-08T07:40:48.531Z,13.62
2023-05-08T07:41:49.919Z,13.50
2023-05-08T07:42:48.531Z,13.55
2023-05-08T07:43:48.485Z,13.61
2023-05-08T07:44:54.750Z,13.54
2023-05-08T07:45:48.471Z,13.55
2023-05-08T07:46:48.564Z,13.71
2023-05-08T07:47:48.494Z,13.83
2023-05-08T07:48:48.449Z,13.93
2023-05-08T07:49:48.415Z,14.04
2023-05-08T07:50:48.465Z,14.16
2023-05-08T07:51:48.396Z,14.29
2023-05-08T07:52:50.148Z,14.35
2023-05-08T07:53:48.434Z,14.38
2023-05-08T07:54:48.430Z,14.31
2023-05-08T07:55:48.340Z,14.27
2023-05-08T07:56:48.376Z,14.31
2023-05-08T07:57:48.363Z,14.34
2023-05-08T07:58:48.372Z,14.30
2023-05-08T07:59:48.315Z,14.34
2023-05-08T08:00:48.350Z,14.36
2023-05-08T08:01:48.321Z,14.35
2023-05-08T08:02:48.500Z,14.19
2023-05-08T08:03:48.385Z,14.17
2023-05-08T08:04:48.279Z,14.21
2023-05-08T08:05:48.302Z,14.26
2023-05-08T08:06:48.263Z,14.34
2023-05-08T08:07:48.269Z,14.38
2023-05-08T08:08:48.244Z,14.31
2023-05-08T08:09:48.259Z,14.31
2023-05-08T08:10:48.206Z,14.38
2023-05-08T08:11:48.221Z,14.39
2023-05-08T08:12:48.237Z,14.48
2023-05-08T08:13:48.169Z,14.57
2023-05-08T08:14:48.191Z,14.53
2023-05-08T08:15:48.353Z,14.46
2023-05-08T08:16:48.219Z,14.52
2023-05-08T08:17:48.163Z,14.56
2023-05-08T08:18:48.142Z,14.54
2023-05-08T08:19:48.121Z,14.49
2023-05-08T08:20:48.119Z,14.56
2023-05-08T08:21:48.074Z,14.61
2023-05-08T08:22:48.103Z,14.67
2023-05-08T08:23:48.066Z,14.74
2023-05-08T08:24:48.117Z,14.82
2023-05-08T08:25:48.080Z,14.83
2023-05-08T08:26:48.149Z,14.86
2023-05-08T08:27:48.013Z,14.91
2023-05-08T08:28:48.034Z,14.91
2023-05-08T08:29:48.048Z,14.82
2023-05-08T08:30:48.031Z,14.63
2023-05-08T08:31:48.109Z,14.57
2023-05-08T08:32:47.981Z,14.64
2023-05-08T08:33:47.982Z,14.79
2023-05-08T08:34:47.937Z,14.95
2023-05-08T08:35:47.962Z,15.11
2023-05-08T08:36:47.947Z,15.25
2023-05-08T08:37:47.936Z,15.37
2023-05-08T08:38:47.898Z,15.40
2023-05-08T08:39:47.902Z,15.51
2023-05-08T08:40:47.881Z,15.53
2023-05-08T08:41:47.932Z,15.55
2023-05-08T08:42:47.851Z,15.60
2023-05-08T08:43:47.872Z,15.58
2023-05-08T08:44:47.873Z,15.64
2023-05-08T08:45:47.840Z,15.66
2023-05-08T08:46:47.915Z,15.70
2023-05-08T08:47:47.901Z,15.77
2023-05-08T08:48:47.813Z,15.86
2023-05-08T08:49:47.835Z,15.98
2023-05-08T08:50:47.777Z,15.98
2023-05-08T08:51:47.788Z,16.06
2023-05-08T08:52:47.750Z,16.08
2023-05-08T08:53:47.765Z,15.99
2023-05-08T08:54:47.760Z,15.91
2023-05-08T08:55:47.745Z,15.81
2023-05-08T08:56:47.713Z,15.73
2023-05-08T08:57:47.719Z,15.67
2023-05-08T08:58:47.723Z,15.64
2023-05-08T08:59:47.695Z,15.59
2023-05-08T09:00:47.686Z,15.59
2023-05-08T09:01:48.070Z,15.58
2023-05-08T09:02:47.706Z,15.56
2023-05-08T09:03:49.759Z,15.60
2023-05-08T09:04:48.378Z,15.51
2023-05-08T09:05:47.635Z,15.37
2023-05-08T09:06:47.609Z,15.18
2023-05-08T09:07:47.608Z,15.18
2023-05-08T09:08:47.619Z,15.22
2023-05-08T09:09:47.591Z,15.31
2023-05-08T09:10:47.556Z,15.43
2023-05-08T09:11:47.576Z,15.55
2023-05-08T09:12:47.558Z,15.64
2023-05-08T09:13:47.585Z,15.78
2023-05-08T09:14:47.564Z,15.92
2023-05-08T09:15:47.552Z,16.07
2023-05-08T09:16:47.616Z,16.14
2023-05-08T09:17:47.545Z,16.22
2023-05-08T09:18:47.527Z,16.34
2023-05-08T09:19:47.524Z,16.44
2023-05-08T09:20:47.457Z,16.51
2023-05-08T09:21:47.481Z,16.62
2023-05-08T09:22:47.450Z,16.63
2023-05-08T09:23:47.457Z,16.63
2023-05-08T09:24:47.457Z,16.63
2023-05-08T09:25:47.438Z,16.69
2023-05-08T09:26:47.384Z,16.78
2023-05-08T09:27:47.428Z,16.81
2023-05-08T09:28:47.371Z,16.87
2023-05-08T09:29:47.379Z,16.52
2023-05-08T09:30:47.384Z,16.67
2023-05-08T09:31:47.436Z,16.73
2023-05-08T09:32:47.391Z,16.82
2023-05-08T09:33:47.333Z,16.90
2023-05-08T09:34:47.311Z,16.85
2023-05-08T09:35:47.327Z,16.67
2023-05-08T09:36:47.318Z,16.62
2023-05-08T09:37:47.314Z,16.78
2023-05-08T09:38:47.264Z,16.88
2023-05-08T09:39:47.288Z,17.06
2023-05-08T09:40:47.250Z,17.25
2023-05-08T09:41:47.517Z,17.30
2023-05-08T09:42:47.275Z,17.36
2023-05-08T09:43:47.238Z,17.33
2023-05-08T09:44:47.245Z,17.22
2023-05-08T09:45:47.250Z,17.21
2023-05-08T09:46:47.190Z,17.24
2023-05-08T09:47:47.225Z,17.38
2023-05-08T09:48:47.144Z,17.15
2023-05-08T09:49:47.194Z,17.12
2023-05-08T09:50:47.184Z,17.28
2023-05-08T09:51:47.210Z,17.53
2023-05-08T09:52:47.136Z,17.54
2023-05-08T09:53:47.433Z,17.74
2023-05-08T09:54:47.086Z,17.55
2023-05-08T09:55:47.095Z,17.28
2023-05-08T09:56:47.502Z,16.96
2023-05-08T09:57:47.087Z,17.10
2023-05-08T09:58:47.898Z,17.07
2023-05-08T09:59:47.050Z,17.12
2023-05-08T10:00:47.047Z,17.12
2023-05-08T10:01:47.048Z,16.99
2023-05-08T10:02:47.032Z,16.99
2023-05-08T10:03:47.123Z,16.92
2023-05-08T10:04:47.108Z,17.02
2023-05-08T10:05:47.015Z,17.00
2023-05-08T10:06:46.964Z,16.99
2023-05-08T10:07:46.977Z,17.05
2023-05-08T10:08:46.977Z,17.15
2023-05-08T10:09:50.624Z,17.20
2023-05-08T10:10:46.926Z,17.27
2023-05-08T10:11:46.932Z,17.39
2023-05-08T10:12:46.942Z,17.46
2023-05-08T10:13:46.956Z,17.45
2023-05-08T10:14:47.110Z,17.55
2023-05-08T10:15:46.892Z,17.62
2023-05-08T10:16:46.914Z,17.71
2023-05-08T10:17:46.956Z,17.71
2023-05-08T10:18:46.872Z,17.62
2023-05-08T10:19:46.863Z,17.65
2023-05-08T10:20:46.821Z,17.66
2023-05-08T10:21:46.855Z,17.77
2023-05-08T10:22:46.792Z,17.60
2023-05-08T10:23:46.813Z,17.58
2023-05-08T10:24:46.797Z,17.54
2023-05-08T10:25:46.783Z,17.53
2023-05-08T10:26:57.386Z,17.65
2023-05-08T10:27:46.772Z,17.57
2023-05-08T10:28:46.733Z,17.60
2023-05-08T10:29:46.756Z,17.62
2023-05-08T10:30:46.723Z,17.70
2023-05-08T10:31:46.751Z,17.68
2023-05-08T10:32:46.729Z,17.65
2023-05-08T10:33:46.723Z,17.73
2023-05-08T10:34:46.667Z,17.76
2023-05-08T10:35:46.690Z,17.77
2023-05-08T10:36:46.664Z,17.77
2023-05-08T10:37:46.656Z,17.73
2023-05-08T10:38:46.619Z,17.58
2023-05-08T10:39:46.642Z,17.53
2023-05-08T10:40:46.616Z,17.55
2023-05-08T10:41:46.706Z,17.62
2023-05-08T10:42:46.597Z,17.66
2023-05-08T10:43:46.616Z,17.77
2023-05-08T10:44:46.562Z,17.89
2023-05-08T10:45:47.126Z,18.01
2023-05-08T10:46:46.593Z,18.16
2023-05-08T10:47:48.549Z,18.19
2023-05-08T10:48:46.528Z,18.23
2023-05-08T10:49:46.527Z,18.19
2023-05-08T10:50:46.572Z,18.25
2023-05-08T10:51:46.513Z,18.28
2023-05-08T10:52:46.476Z,18.28
2023-05-08T10:53:46.492Z,18.32
2023-05-08T10:54:46.464Z,18.36
2023-05-08T10:55:46.475Z,18.36
2023-05-08T10:56:46.469Z,18.47
2023-05-08T10:57:46.450Z,18.39
2023-05-08T10:58:46.425Z,18.49
2023-05-08T10:59:46.432Z,18.49
2023-05-08T11:00:46.395Z,18.53
2023-05-08T11:01:46.479Z,18.51
2023-05-08T11:02:46.452Z,18.66
2023-05-08T11:03:46.634Z,18.65
2023-05-08T11:04:46.437Z,18.66
2023-05-08T11:05:46.421Z,18.82
2023-05-08T11:06:46.335Z,18.79
2023-05-08T11:07:46.355Z,18.76
2023-05-08T11:08:46.308Z,18.71
2023-05-08T11:09:46.331Z,18.69
2023-05-08T11:10:46.285Z,18.72
2023-05-08T11:11:46.294Z,18.75
2023-05-08T11:12:46.324Z,18.74
2023-05-08T11:13:46.272Z,18.65
2023-05-08T11:14:46.252Z,18.60
2023-05-08T11:15:46.291Z,18.57
2023-05-08T11:16:46.318Z,18.47
2023-05-08T11:17:46.255Z,18.50
2023-05-08T11:18:49.429Z,18.53
2023-05-08T11:19:46.209Z,18.54
2023-05-08T11:20:46.175Z,18.66
2023-05-08T11:21:46.195Z,18.65
2023-05-08T11:22:46.149Z,18.71
2023-05-08T11:23:46.191Z,18.76
2023-05-08T11:24:46.127Z,18.86
2023-05-08T11:25:46.168Z,19.05
2023-05-08T11:26:46.093Z,19.13
2023-05-08T11:27:46.143Z,19.21
2023-05-08T11:28:46.086Z,19.25
2023-05-08T11:29:46.106Z,19.31
2023-05-08T11:30:46.070Z,19.17
2023-05-08T11:31:46.104Z,19.09
2023-05-08T11:32:46.369Z,19.24
2023-05-08T11:33:46.046Z,19.35
2023-05-08T11:34:46.055Z,19.65
2023-05-08T11:35:46.039Z,19.87
2023-05-08T11:36:46.091Z,19.86
2023-05-08T11:37:46.013Z,19.89
2023-05-08T11:38:45.970Z,19.95
2023-05-08T11:39:46.094Z,19.80
2023-05-08T11:40:46.021Z,19.46
2023-05-08T11:41:45.985Z,19.42
2023-05-08T11:42:45.939Z,19.46
2023-05-08T11:43:45.952Z,19.67
2023-05-08T11:44:45.938Z,19.83
2023-05-08T11:45:45.950Z,19.80
2023-05-08T11:46:45.926Z,19.64
2023-05-08T11:47:45.987Z,19.75
2023-05-08T11:48:45.868Z,19.90
2023-05-08T11:49:45.916Z,20.05
2023-05-08T11:50:45.846Z,20.10
2023-05-08T11:51:45.890Z,19.83
2023-05-08T11:52:45.851Z,19.57
2023-05-08T11:53:45.850Z,19.61
2023-05-08T11:54:45.843Z,19.92
2023-05-08T11:55:45.821Z,20.13
2023-05-08T11:56:47.706Z,20.26
2023-05-08T11:57:45.803Z,20.41
2023-05-08T11:58:45.772Z,20.42
2023-05-08T11:59:45.801Z,20.51
2023-05-08T12:00:45.783Z,20.51
2023-05-08T12:01:53.492Z,20.64
2023-05-08T12:02:45.834Z,20.34
2023-05-08T12:03:45.953Z,19.97
2023-05-08T12:04:45.776Z,20.10
2023-05-08T12:05:45.717Z,20.22
2023-05-08T12:06:45.686Z,20.22
2023-05-08T12:07:45.708Z,20.04
2023-05-08T12:08:45.671Z,20.19
2023-05-08T12:09:45.698Z,20.46
2023-05-08T12:10:46.832Z,20.23
2023-05-08T12:11:45.720Z,20.08
2023-05-08T12:12:45.797Z,19.64
2023-05-08T12:13:45.647Z,19.57
2023-05-08T12:14:46.121Z,19.58
2023-05-08T12:15:45.637Z,19.68
2023-05-08T12:16:45.697Z,19.89
2023-05-08T12:17:45.662Z,20.05
2023-05-08T12:18:45.987Z,20.30
2023-05-08T12:19:45.585Z,19.90
2023-05-08T12:20:45.567Z,19.75
2023-05-08T12:21:45.532Z,19.80
2023-05-08T12:22:45.515Z,19.82
2023-05-08T12:23:45.514Z,19.85
2023-05-08T12:24:46.114Z,19.85
2023-05-08T12:25:45.546Z,19.76
2023-05-08T12:26:45.531Z,19.90
2023-05-08T12:27:45.503Z,19.98
2023-05-08T12:28:45.462Z,20.00
2023-05-08T12:29:45.527Z,20.16
2023-05-08T12:30:45.454Z,20.33
2023-05-08T12:31:45.537Z,20.22
2023-05-08T12:32:45.459Z,20.12
2023-05-08T12:33:45.484Z,20.19
2023-05-08T12:34:45.449Z,20.40
2023-05-08T12:35:45.441Z,20.16
2023-05-08T12:36:45.410Z,19.98
2023-05-08T12:37:45.403Z,20.20
2023-05-08T12:38:45.385Z,20.30
2023-05-08T12:39:45.384Z,20.35
2023-05-08T12:40:45.336Z,20.60
2023-05-08T12:41:45.403Z,20.41
2023-05-08T12:42:45.337Z,20.30
2023-05-08T12:43:45.351Z,20.27
2023-05-08T12:44:45.334Z,20.61
2023-05-08T12:45:45.297Z,20.94
2023-05-08T12:46:45.370Z,21.15
2023-05-08T12:47:45.330Z,21.12
2023-05-08T12:48:45.286Z,21.31
2023-05-08T12:49:45.284Z,21.31
2023-05-08T12:50:45.279Z,21.26
2023-05-08T12:51:45.222Z,21.08
2023-05-08T12:52:45.246Z,21.22
2023-05-08T12:53:45.207Z,21.42
2023-05-08T12:54:45.248Z,21.13
2023-05-08T12:55:45.196Z,21.03
2023-05-08T12:56:45.215Z,21.13
2023-05-08T12:57:45.210Z,21.37
2023-05-08T12:58:45.203Z,21.49
2023-05-08T12:59:45.150Z,21.59
2023-05-08T13:00:45.201Z,21.63